Temp: 5.3°C   Baro: 1000.3mb
  Wind: 0.0mph   Dir: WSW (242°)
  Rain: 0.0mm (0.0mm/hr)
  Solar: 65W/m2  Hum: 90%
 
Bath Spa Weather Historical Data
Daily Summary for July 15, 2019 Units:  Metric    English   Both
Next Day »
Daily Weekly Monthly Yearly Custom
  High: Low: Average:
Temperature: 24.5 °C 11.3 °C 17.9 °C
Dew Point: 14.0 °C 9.1 °C 11.7 °C
Humidity: 87% 48% 68%
Wind Speed: 16.1km/h 0.0km/h 2.7km/h
Wind Gust: 17.7km/h - -
Wind direction- - ESE
Pressure: 1023.2 hPa 1019.9 hPa -
Precipitation: 0.0 mm    
Historical Graphs
 
 
Tabular Data for July 15, 2019
Time Temperature Dew Point Pressure Wind direction Wind Speed Wind Gust Humidity Rainfall Rate (Hourly) solar
00:04 16.3 °C 11.7 °C 1022.9 hPa ESE 6.4 km/h 8.0 km/h 74% 0.0 mm 0.00 W/m2
00:09 16.2 °C 11.6 °C 1022.9 hPa NE 4.7 km/h 4.8 km/h 74% 0.0 mm 0.00 W/m2
00:14 16.1 °C 11.7 °C 1022.9 hPa Calm   4.8 km/h 75% 0.0 mm 0.00 W/m2
00:19 16.0 °C 11.6 °C 1022.9 hPa NE 3.2 km/h 4.8 km/h 75% 0.0 mm 0.00 W/m2
00:24 15.9 °C 11.5 °C 1022.9 hPa Calm   6.4 km/h 75% 0.0 mm 0.00 W/m2
00:29 15.9 °C 11.5 °C 1022.9 hPa Calm   1.6 km/h 75% 0.0 mm 0.00 W/m2
00:34 15.8 °C 11.4 °C 1022.9 hPa ENE 3.2 km/h 6.4 km/h 75% 0.0 mm 0.00 W/m2
00:39 15.7 °C 11.3 °C 1023.2 hPa Calm   3.2 km/h 75% 0.0 mm 0.00 W/m2
00:44 15.6 °C 11.2 °C 1022.9 hPa Calm   4.8 km/h 75% 0.0 mm 0.00 W/m2
00:49 15.5 °C 11.1 °C 1022.9 hPa SE 1.4 km/h 6.4 km/h 75% 0.0 mm 0.00 W/m2
00:54 15.5 °C 11.1 °C 1023.2 hPa Calm   4.8 km/h 75% 0.0 mm 0.00 W/m2
00:59 15.4 °C 11.0 °C 1023.2 hPa Calm     75% 0.0 mm 0.00 W/m2
01:04 15.4 °C 11.0 °C 1023.2 hPa Calm     75% 0.0 mm 0.00 W/m2
01:09 15.3 °C 11.1 °C 1023.2 hPa Calm   3.2 km/h 76% 0.0 mm 0.00 W/m2
01:14 15.2 °C 11.0 °C 1023.2 hPa Calm   3.2 km/h 76% 0.0 mm 0.00 W/m2
01:19 15.1 °C 10.9 °C 1023.2 hPa SE 1.4 km/h 6.4 km/h 76% 0.0 mm 0.00 W/m2
01:24 15.0 °C 11.0 °C 1023.2 hPa Calm   1.6 km/h 77% 0.0 mm 0.00 W/m2
01:29 14.9 °C 10.9 °C 1023.2 hPa Calm   3.2 km/h 77% 0.0 mm 0.00 W/m2
01:34 14.9 °C 11.1 °C 1023.2 hPa ESE 4.8 km/h 4.8 km/h 78% 0.0 mm 0.00 W/m2
01:39 14.8 °C 11.0 °C 1023.2 hPa ESE 1.4 km/h 4.8 km/h 78% 0.0 mm 0.00 W/m2
01:44 14.8 °C 11.0 °C 1023.2 hPa ESE 1.4 km/h 3.2 km/h 78% 0.0 mm 0.00 W/m2
01:49 14.8 °C 11.0 °C 1023.2 hPa ESE 11.3 km/h 11.3 km/h 78% 0.0 mm 0.00 W/m2
01:54 14.7 °C 10.9 °C 1023.2 hPa Calm   3.2 km/h 78% 0.0 mm 0.00 W/m2
01:59 14.7 °C 10.9 °C 1023.2 hPa East 8.0 km/h 8.0 km/h 78% 0.0 mm 0.00 W/m2
02:04 14.5 °C 10.9 °C 1023.2 hPa NE 6.4 km/h 8.0 km/h 79% 0.0 mm 0.00 W/m2
02:09 14.4 °C 10.8 °C 1023.2 hPa ESE 3.2 km/h 8.0 km/h 79% 0.0 mm 0.00 W/m2
02:14 14.4 °C 10.8 °C 1023.2 hPa ESE 1.4 km/h 4.8 km/h 79% 0.0 mm 0.00 W/m2
02:19 14.3 °C 10.7 °C 1023.2 hPa SE 6.4 km/h 11.3 km/h 79% 0.0 mm 0.00 W/m2
02:24 14.2 °C 10.8 °C 1023.2 hPa Calm   8.0 km/h 80% 0.0 mm 0.00 W/m2
02:29 14.2 °C 10.8 °C 1023.2 hPa Calm   4.8 km/h 80% 0.0 mm 0.00 W/m2
02:34 14.2 °C 10.8 °C 1023.2 hPa Calm   1.6 km/h 80% 0.0 mm 0.00 W/m2
02:39 14.0 °C 10.6 °C 1023.2 hPa Calm   1.6 km/h 80% 0.0 mm 0.00 W/m2
02:44 14.0 °C 10.6 °C 1023.2 hPa ESE 3.2 km/h 3.2 km/h 80% 0.0 mm 0.00 W/m2
02:49 13.9 °C 10.7 °C 1023.2 hPa ESE 4.8 km/h 4.8 km/h 81% 0.0 mm 0.00 W/m2
02:54 13.8 °C 10.6 °C 1023.2 hPa ESE 3.2 km/h 3.2 km/h 81% 0.0 mm 0.00 W/m2
02:59 13.7 °C 10.5 °C 1023.2 hPa Calm   9.7 km/h 81% 0.0 mm 0.00 W/m2
03:04 13.6 °C 10.4 °C 1023.2 hPa ESE 1.4 km/h 4.8 km/h 81% 0.0 mm 0.00 W/m2
03:09 13.5 °C 10.5 °C 1023.2 hPa ESE 3.2 km/h 3.2 km/h 82% 0.0 mm 0.00 W/m2
03:14 13.3 °C 10.3 °C 1023.2 hPa Calm   3.2 km/h 82% 0.0 mm 0.00 W/m2
03:19 13.2 °C 10.2 °C 1022.9 hPa Calm   3.2 km/h 82% 0.0 mm 0.00 W/m2
03:24 13.0 °C 10.2 °C 1022.9 hPa Calm   3.2 km/h 83% 0.0 mm 0.00 W/m2
03:29 12.9 °C 10.1 °C 1022.9 hPa Calm   4.8 km/h 83% 0.0 mm 0.00 W/m2
03:34 12.8 °C 10.0 °C 1022.9 hPa ESE 1.4 km/h 4.8 km/h 83% 0.0 mm 0.00 W/m2
03:39 12.8 °C 10.2 °C 1022.9 hPa Calm   3.2 km/h 84% 0.0 mm 0.00 W/m2
03:44 12.7 °C 10.1 °C 1022.9 hPa Calm   4.8 km/h 84% 0.0 mm 0.00 W/m2
03:49 12.5 °C 9.9 °C 1022.9 hPa Calm   1.6 km/h 84% 0.0 mm 0.00 W/m2
03:54 12.5 °C 9.9 °C 1022.9 hPa Calm   1.6 km/h 84% 0.0 mm 0.00 W/m2
03:59 12.5 °C 10.0 °C 1022.9 hPa Calm   3.2 km/h 85% 0.0 mm 0.00 W/m2
04:04 12.4 °C 9.8 °C 1022.9 hPa Calm   4.8 km/h 84% 0.0 mm 0.00 W/m2
04:09 12.3 °C 9.9 °C 1022.9 hPa Calm     85% 0.0 mm 0.00 W/m2
04:14 12.3 °C 9.9 °C 1022.9 hPa Calm   1.6 km/h 85% 0.0 mm 0.00 W/m2
04:19 12.2 °C 9.8 °C 1022.9 hPa Calm   1.6 km/h 85% 0.0 mm 0.00 W/m2
04:24 12.2 °C 9.8 °C 1022.9 hPa Calm   1.6 km/h 85% 0.0 mm 0.00 W/m2
04:29 12.1 °C 9.7 °C 1022.9 hPa Calm     85% 0.0 mm 0.00 W/m2
04:34 12.0 °C 9.6 °C 1022.9 hPa Calm     85% 0.0 mm 0.00 W/m2
04:39 12.0 °C 9.6 °C 1022.9 hPa Calm   4.8 km/h 85% 0.0 mm 0.00 W/m2
04:44 11.9 °C 9.5 °C 1022.9 hPa Calm     85% 0.0 mm 0.00 W/m2
04:49 11.9 °C 9.6 °C 1022.9 hPa Calm   1.6 km/h 86% 0.0 mm 0.00 W/m2
04:54 11.8 °C 9.5 °C 1022.9 hPa Calm   1.6 km/h 86% 0.0 mm 0.00 W/m2
04:59 11.7 °C 9.4 °C 1022.9 hPa Calm     86% 0.0 mm 0.00 W/m2
05:04 11.6 °C 9.3 °C 1022.9 hPa Calm     86% 0.0 mm 0.00 W/m2
05:09 11.6 °C 9.3 °C 1022.9 hPa Calm     86% 0.0 mm 0.00 W/m2
05:14 11.5 °C 9.2 °C 1022.9 hPa Calm   3.2 km/h 86% 0.0 mm 5.00 W/m2
05:19 11.5 °C 9.2 °C 1022.9 hPa Calm   1.6 km/h 86% 0.0 mm 7.00 W/m2
05:24 11.4 °C 9.3 °C 1022.9 hPa ESE 3.2 km/h 6.4 km/h 87% 0.0 mm 9.00 W/m2
05:29 11.4 °C 9.1 °C 1022.9 hPa ESE 1.4 km/h 3.2 km/h 86% 0.0 mm 11.00 W/m2
05:34 11.4 °C 9.3 °C 1022.9 hPa ESE 3.2 km/h 4.8 km/h 87% 0.0 mm 12.00 W/m2
05:39 11.3 °C 9.2 °C 1022.9 hPa Calm   3.2 km/h 87% 0.0 mm 14.00 W/m2
05:44 11.3 °C 9.2 °C 1022.9 hPa Calm   3.2 km/h 87% 0.0 mm 16.00 W/m2
05:49 11.3 °C 9.2 °C 1022.9 hPa Calm   1.6 km/h 87% 0.0 mm 18.00 W/m2
05:54 11.3 °C 9.2 °C 1022.9 hPa ESE 1.4 km/h 3.2 km/h 87% 0.0 mm 19.00 W/m2
05:59 11.3 °C 9.2 °C 1022.9 hPa Calm   3.2 km/h 87% 0.0 mm 23.00 W/m2
06:04 11.3 °C 9.2 °C 1022.9 hPa Calm     87% 0.0 mm 25.00 W/m2
06:09 11.3 °C 9.2 °C 1022.9 hPa Calm     87% 0.0 mm 26.00 W/m2
06:14 11.4 °C 9.3 °C 1023.2 hPa Calm     87% 0.0 mm 28.00 W/m2
06:19 11.5 °C 9.4 °C 1023.2 hPa Calm   1.6 km/h 87% 0.0 mm 30.00 W/m2
06:24 11.6 °C 9.5 °C 1023.2 hPa Calm   1.6 km/h 87% 0.0 mm 32.00 W/m2
06:29 11.7 °C 9.6 °C 1023.2 hPa Calm   1.6 km/h 87% 0.0 mm 33.00 W/m2
06:34 11.8 °C 9.7 °C 1022.9 hPa Calm   1.6 km/h 87% 0.0 mm 37.00 W/m2
06:39 11.8 °C 9.7 °C 1022.9 hPa Calm   1.6 km/h 87% 0.0 mm 40.00 W/m2
06:44 11.8 °C 9.7 °C 1022.9 hPa Calm   3.2 km/h 87% 0.0 mm 46.00 W/m2
06:49 11.9 °C 9.8 °C 1023.2 hPa ESE 1.4 km/h 3.2 km/h 87% 0.0 mm 54.00 W/m2
06:54 12.0 °C 9.9 °C 1023.2 hPa ESE 4.7 km/h 4.8 km/h 87% 0.0 mm 67.00 W/m2
06:59 12.2 °C 10.1 °C 1023.2 hPa ESE 1.4 km/h 1.6 km/h 87% 0.0 mm 79.00 W/m2
07:04 12.5 °C 10.4 °C 1023.2 hPa East 4.7 km/h 4.8 km/h 87% 0.0 mm 95.00 W/m2
07:09 12.8 °C 10.5 °C 1022.9 hPa ENE 1.4 km/h 8.0 km/h 86% 0.0 mm 111.00 W/m2
07:14 13.0 °C 10.7 °C 1023.2 hPa Calm   4.8 km/h 86% 0.0 mm 123.00 W/m2
07:19 13.2 °C 10.7 °C 1023.2 hPa Calm   4.8 km/h 85% 0.0 mm 142.00 W/m2
07:24 13.3 °C 10.7 °C 1023.2 hPa Calm   3.2 km/h 84% 0.0 mm 158.00 W/m2
07:29 13.5 °C 10.8 °C 1023.2 hPa Calm   4.8 km/h 84% 0.0 mm 174.00 W/m2
07:34 13.7 °C 10.9 °C 1023.2 hPa East 4.7 km/h 6.4 km/h 83% 0.0 mm 192.00 W/m2
07:39 13.8 °C 10.8 °C 1023.2 hPa ESE 11.1 km/h 11.3 km/h 82% 0.0 mm 207.00 W/m2
07:44 13.9 °C 10.9 °C 1023.2 hPa ESE 6.4 km/h 9.7 km/h 82% 0.0 mm 221.00 W/m2
07:49 13.9 °C 10.7 °C 1023.2 hPa NNE 4.7 km/h 14.5 km/h 81% 0.0 mm 237.00 W/m2
07:54 14.2 °C 11.0 °C 1023.2 hPa Calm   6.4 km/h 81% 0.0 mm 253.00 W/m2
07:59 14.2 °C 10.8 °C 1023.2 hPa Calm   6.4 km/h 80% 0.0 mm 269.00 W/m2
08:04 14.0 °C 10.6 °C 1023.2 hPa ESE 3.2 km/h 8.0 km/h 80% 0.0 mm 287.00 W/m2
08:09 14.2 °C 10.8 °C 1023.2 hPa East 4.7 km/h 8.0 km/h 80% 0.0 mm 302.00 W/m2
08:14 14.2 °C 10.6 °C 1023.2 hPa ESE 6.4 km/h 9.7 km/h 79% 0.0 mm 320.00 W/m2
08:19 14.4 °C 10.8 °C 1023.2 hPa East 4.7 km/h 6.4 km/h 79% 0.0 mm 338.00 W/m2
08:24 14.6 °C 11.0 °C 1023.2 hPa ENE 1.4 km/h 6.4 km/h 79% 0.0 mm 353.00 W/m2
08:29 14.9 °C 11.1 °C 1023.2 hPa ENE 4.7 km/h 8.0 km/h 78% 0.0 mm 374.00 W/m2
08:34 15.6 °C 11.6 °C 1023.2 hPa ESE 3.2 km/h 8.0 km/h 77% 0.0 mm 404.00 W/m2
08:39 15.9 °C 11.3 °C 1023.2 hPa Calm   14.5 km/h 74% 0.0 mm 406.00 W/m2
08:44 16.1 °C 11.3 °C 1023.2 hPa SE 3.2 km/h 11.3 km/h 73% 0.0 mm 431.00 W/m2
08:49 15.4 °C 10.6 °C 1023.2 hPa SE 7.9 km/h 8.0 km/h 73% 0.0 mm 459.00 W/m2
08:54 15.5 °C 10.7 °C 1023.2 hPa SE 1.4 km/h 12.9 km/h 73% 0.0 mm 450.00 W/m2
08:59 15.8 °C 10.6 °C 1023.2 hPa SE 4.7 km/h 9.7 km/h 71% 0.0 mm 468.00 W/m2
09:04 15.7 °C 10.7 °C 1023.2 hPa ESE 3.2 km/h 6.4 km/h 72% 0.0 mm 478.00 W/m2
09:09 16.1 °C 10.8 °C 1023.2 hPa ESE 7.9 km/h 11.3 km/h 71% 0.0 mm 482.00 W/m2
09:14 15.9 °C 10.4 °C 1023.2 hPa SE 3.2 km/h 11.3 km/h 70% 0.0 mm 501.00 W/m2
09:19 16.4 °C 11.1 °C 1023.2 hPa East 6.4 km/h 11.3 km/h 71% 0.0 mm 519.00 W/m2
09:24 16.9 °C 11.2 °C 1023.2 hPa ESE 4.7 km/h 9.7 km/h 69% 0.0 mm 529.00 W/m2
09:29 16.0 °C 10.5 °C 1023.2 hPa SE 6.4 km/h 11.3 km/h 70% 0.0 mm 554.00 W/m2
09:34 16.3 °C 10.8 °C 1023.2 hPa SE 4.7 km/h 12.9 km/h 70% 0.0 mm 578.00 W/m2
09:39 16.8 °C 11.3 °C 1023.2 hPa NE 1.4 km/h 4.8 km/h 70% 0.0 mm 582.00 W/m2
09:44 17.3 °C 11.3 °C 1023.2 hPa ESE 3.2 km/h 14.5 km/h 68% 0.0 mm 584.00 W/m2
09:49 17.5 °C 11.3 °C 1023.2 hPa SSE 1.4 km/h 8.0 km/h 67% 0.0 mm 606.00 W/m2
09:54 17.7 °C 11.5 °C 1023.2 hPa ESE 6.4 km/h 14.5 km/h 67% 0.0 mm 619.00 W/m2
09:59 17.6 °C 10.9 °C 1023.2 hPa NE 6.4 km/h 14.5 km/h 65% 0.0 mm 626.00 W/m2
10:04 17.7 °C 11.5 °C 1023.2 hPa NE 4.7 km/h 11.3 km/h 67% 0.0 mm 628.00 W/m2
10:09 17.8 °C 11.1 °C 1022.9 hPa NNE 4.7 km/h 12.9 km/h 65% 0.0 mm 645.00 W/m2
10:14 17.7 °C 11.3 °C 1022.9 hPa ENE 1.4 km/h 12.9 km/h 66% 0.0 mm 664.00 W/m2
10:19 17.3 °C 11.1 °C 1022.9 hPa Calm   4.8 km/h 67% 0.0 mm 693.00 W/m2
10:24 17.8 °C 11.4 °C 1022.9 hPa ESE 3.2 km/h 12.9 km/h 66% 0.0 mm 677.00 W/m2
10:29 17.9 °C 11.5 °C 1022.9 hPa ENE 3.2 km/h 14.5 km/h 66% 0.0 mm 677.00 W/m2
10:34 17.9 °C 11.2 °C 1022.9 hPa Calm   1.6 km/h 65% 0.0 mm 742.00 W/m2
10:39 18.4 °C 11.2 °C 1022.9 hPa SE 1.4 km/h 14.5 km/h 63% 0.0 mm 749.00 W/m2
10:44 18.4 °C 11.5 °C 1022.9 hPa East 4.7 km/h 8.0 km/h 64% 0.0 mm 751.00 W/m2
10:49 18.4 °C 11.9 °C 1022.9 hPa North 7.9 km/h 8.0 km/h 66% 0.0 mm 742.00 W/m2
10:54 18.5 °C 12.5 °C 1022.9 hPa ENE 7.9 km/h 12.9 km/h 68% 0.0 mm 737.00 W/m2
10:59 18.7 °C 12.7 °C 1022.9 hPa ESE 3.2 km/h 11.3 km/h 68% 0.0 mm 749.00 W/m2
11:04 18.3 °C 12.3 °C 1022.9 hPa NNE 4.7 km/h 12.9 km/h 68% 0.0 mm 756.00 W/m2
11:09 18.6 °C 12.8 °C 1022.9 hPa ENE 4.7 km/h 9.7 km/h 69% 0.0 mm 759.00 W/m2
11:14 19.1 °C 12.6 °C 1022.9 hPa Calm   9.7 km/h 66% 0.0 mm 773.00 W/m2
11:19 19.5 °C 13.2 °C 1022.9 hPa SE 4.7 km/h 12.9 km/h 67% 0.0 mm 807.00 W/m2
11:24 19.1 °C 12.8 °C 1022.6 hPa NNW 4.7 km/h 9.7 km/h 67% 0.0 mm 796.00 W/m2
11:29 19.7 °C 13.2 °C 1022.9 hPa ESE 3.2 km/h 8.0 km/h 66% 0.0 mm 185.00 W/m2
11:34 19.0 °C 12.3 °C 1022.9 hPa NNE 3.2 km/h 17.7 km/h 65% 0.0 mm 788.00 W/m2
11:39 19.0 °C 12.3 °C 1022.9 hPa SSE 3.2 km/h 11.3 km/h 65% 0.0 mm 789.00 W/m2
11:44 19.3 °C 12.8 °C 1022.9 hPa ESE 4.7 km/h 4.8 km/h 66% 0.0 mm 814.00 W/m2
11:49 19.2 °C 12.9 °C 1022.9 hPa ESE 6.4 km/h 11.3 km/h 67% 0.0 mm 812.00 W/m2
11:54 19.2 °C 12.7 °C 1022.6 hPa South 11.1 km/h 11.3 km/h 66% 0.0 mm 809.00 W/m2
11:59 18.8 °C 12.5 °C 1022.6 hPa South 6.4 km/h 16.1 km/h 67% 0.0 mm 817.00 W/m2
12:04 17.8 °C 12.0 °C 1022.6 hPa SSE 1.4 km/h 12.9 km/h 69% 0.0 mm 830.00 W/m2
12:09 19.8 °C 13.0 °C 1022.6 hPa NNE 6.4 km/h 16.1 km/h 65% 0.0 mm 840.00 W/m2
12:14 20.1 °C 13.5 °C 1022.6 hPa ESE 4.7 km/h 11.3 km/h 66% 0.0 mm 838.00 W/m2
12:19 21.0 °C 12.7 °C 1022.6 hPa ESE 7.9 km/h 12.9 km/h 59% 0.0 mm 863.00 W/m2
12:24 19.6 °C 12.6 °C 1022.6 hPa South 7.9 km/h 14.5 km/h 64% 0.0 mm 870.00 W/m2
12:29 20.3 °C 13.3 °C 1022.6 hPa East 11.1 km/h 12.9 km/h 64% 0.0 mm 860.00 W/m2
12:34 21.2 °C 13.6 °C 1022.6 hPa Calm   6.4 km/h 62% 0.0 mm 879.00 W/m2
12:39 21.1 °C 13.0 °C 1022.6 hPa ESE 4.7 km/h 17.7 km/h 60% 0.0 mm 860.00 W/m2
12:44 20.7 °C 12.4 °C 1022.6 hPa SSE 6.4 km/h 14.5 km/h 59% 0.0 mm 858.00 W/m2
12:49 19.2 °C 12.9 °C 1022.2 hPa Calm   3.2 km/h 67% 0.0 mm 874.00 W/m2
12:54 20.0 °C 13.0 °C 1022.2 hPa NE 4.7 km/h 12.9 km/h 64% 0.0 mm 856.00 W/m2
12:59 21.5 °C 13.4 °C 1022.2 hPa ESE 11.1 km/h 11.3 km/h 60% 0.0 mm 847.00 W/m2
13:04 21.1 °C 12.8 °C 1022.2 hPa Calm   9.7 km/h 59% 0.0 mm 853.00 W/m2
13:09 21.2 °C 13.4 °C 1022.2 hPa NE 4.7 km/h 8.0 km/h 61% 0.0 mm 919.00 W/m2
13:14 21.5 °C 13.7 °C 1022.2 hPa ESE 16.1 km/h 16.1 km/h 61% 0.0 mm 902.00 W/m2
13:19 21.4 °C 13.3 °C 1022.2 hPa NE 11.1 km/h 11.3 km/h 60% 0.0 mm 935.00 W/m2
13:24 22.1 °C 13.4 °C 1022.2 hPa ESE 3.2 km/h 9.7 km/h 58% 0.0 mm 916.00 W/m2
13:29 22.4 °C 13.5 °C 1022.2 hPa East 3.2 km/h 4.8 km/h 57% 0.0 mm 921.00 W/m2
13:34 22.7 °C 13.7 °C 1021.9 hPa ESE 7.9 km/h 12.9 km/h 57% 0.0 mm 918.00 W/m2
13:39 22.5 °C 13.8 °C 1021.9 hPa ESE 4.7 km/h 12.9 km/h 58% 0.0 mm 891.00 W/m2
13:44 22.6 °C 13.9 °C 1021.9 hPa ESE 6.4 km/h 9.7 km/h 58% 0.0 mm 937.00 W/m2
13:49 22.9 °C 13.9 °C 1021.9 hPa SE 4.7 km/h 4.8 km/h 57% 0.0 mm 974.00 W/m2
13:54 22.8 °C 13.6 °C 1021.9 hPa NE 11.1 km/h 12.9 km/h 56% 0.0 mm 237.00 W/m2
13:59 21.0 °C 12.9 °C 1021.9 hPa SW 6.4 km/h 6.4 km/h 60% 0.0 mm 933.00 W/m2
14:04 22.1 °C 13.7 °C 1021.9 hPa Calm   8.0 km/h 59% 0.0 mm 946.00 W/m2
14:09 22.5 °C 13.3 °C 1021.9 hPa NNE 6.4 km/h 9.7 km/h 56% 0.0 mm 970.00 W/m2
14:14 22.5 °C 13.8 °C 1021.9 hPa NE 11.1 km/h 11.3 km/h 58% 0.0 mm 949.00 W/m2
14:19 21.3 °C 13.2 °C 1021.6 hPa Calm   4.8 km/h 60% 0.0 mm 974.00 W/m2
14:24 21.8 °C 13.2 °C 1021.6 hPa NE 4.7 km/h 12.9 km/h 58% 0.0 mm 206.00 W/m2
14:29 21.5 °C 13.4 °C 1021.6 hPa Calm   1.6 km/h 60% 0.0 mm 271.00 W/m2
14:34 23.0 °C 14.0 °C 1021.6 hPa SE 6.4 km/h 8.0 km/h 57% 0.0 mm 879.00 W/m2
14:39 22.6 °C 13.6 °C 1021.6 hPa NNE 4.7 km/h 4.8 km/h 57% 0.0 mm 905.00 W/m2
14:44 22.8 °C 13.6 °C 1021.6 hPa SE 3.2 km/h 9.7 km/h 56% 0.0 mm 902.00 W/m2
14:49 23.2 °C 13.7 °C 1021.6 hPa SSE 6.4 km/h 12.9 km/h 55% 0.0 mm 902.00 W/m2
14:54 22.3 °C 12.8 °C 1021.6 hPa NW 6.4 km/h 12.9 km/h 55% 0.0 mm 877.00 W/m2
14:59 21.8 °C 13.2 °C 1021.2 hPa Calm   9.7 km/h 58% 0.0 mm 911.00 W/m2
15:04 22.3 °C 13.6 °C 1021.2 hPa ESE 7.9 km/h 11.3 km/h 58% 0.0 mm 907.00 W/m2
15:09 23.8 °C 13.6 °C 1021.2 hPa ENE 3.2 km/h 9.7 km/h 53% 0.0 mm 847.00 W/m2
15:14 24.5 °C 13.7 °C 1021.2 hPa NE 16.1 km/h 16.1 km/h 51% 0.0 mm 830.00 W/m2
15:19 22.7 °C 13.2 °C 1021.2 hPa NE 6.4 km/h 12.9 km/h 55% 0.0 mm 860.00 W/m2
15:24 22.5 °C 13.0 °C 1021.2 hPa Calm   4.8 km/h 55% 0.0 mm 847.00 W/m2
15:29 23.3 °C 13.5 °C 1021.2 hPa Calm   12.9 km/h 54% 0.0 mm 192.00 W/m2
15:34 23.4 °C 13.3 °C 1021.2 hPa SE 6.4 km/h 6.4 km/h 53% 0.0 mm 846.00 W/m2
15:38 21.8 °C 12.6 °C 1021.2 hPa South 7.9 km/h 9.7 km/h 56% 0.0 mm 810.00 W/m2
15:44 22.5 °C 13.3 °C 1021.2 hPa ESE 6.4 km/h 8.0 km/h 56% 0.0 mm 814.00 W/m2
15:49 23.2 °C 13.4 °C 1021.2 hPa SE 1.4 km/h 4.8 km/h 54% 0.0 mm 782.00 W/m2
15:54 23.7 °C 13.3 °C 1021.2 hPa NNW 1.4 km/h 9.7 km/h 52% 0.0 mm 805.00 W/m2
15:59 23.4 °C 13.0 °C 1021.2 hPa North 3.2 km/h 9.7 km/h 52% 0.0 mm 791.00 W/m2
16:04 22.9 °C 12.8 °C 1021.2 hPa South 4.7 km/h 11.3 km/h 53% 0.0 mm 176.00 W/m2
16:09 22.6 °C 12.5 °C 1020.9 hPa SE 3.2 km/h 8.0 km/h 53% 0.0 mm 758.00 W/m2
16:14 22.7 °C 12.9 °C 1020.9 hPa ESE 1.4 km/h 12.9 km/h 54% 0.0 mm 740.00 W/m2
16:19 23.3 °C 13.2 °C 1020.9 hPa NNE 7.9 km/h 9.7 km/h 53% 0.0 mm 738.00 W/m2
16:24 23.2 °C 13.1 °C 1020.9 hPa NNE 3.2 km/h 9.7 km/h 53% 0.0 mm 729.00 W/m2
16:29 22.8 °C 13.0 °C 1020.9 hPa ESE 7.9 km/h 16.1 km/h 54% 0.0 mm 714.00 W/m2
16:34 23.3 °C 13.2 °C 1020.9 hPa East 6.4 km/h 8.0 km/h 53% 0.0 mm 708.00 W/m2
16:39 23.0 °C 12.6 °C 1020.9 hPa SE 3.2 km/h 8.0 km/h 52% 0.0 mm 134.00 W/m2
16:44 22.7 °C 12.3 °C 1020.9 hPa ESE 7.9 km/h 9.7 km/h 52% 0.0 mm 663.00 W/m2
16:49 22.6 °C 12.5 °C 1020.5 hPa ENE 3.2 km/h 12.9 km/h 53% 0.0 mm 650.00 W/m2
16:54 22.5 °C 12.4 °C 1020.5 hPa Calm   14.5 km/h 53% 0.0 mm 638.00 W/m2
16:59 22.8 °C 13.0 °C 1020.5 hPa ENE 6.4 km/h 6.4 km/h 54% 0.0 mm 605.00 W/m2
17:04 23.4 °C 13.0 °C 1020.5 hPa East 1.4 km/h 6.4 km/h 52% 0.0 mm 592.00 W/m2
17:09 22.6 °C 11.9 °C 1020.5 hPa ESE 4.7 km/h 12.9 km/h 51% 0.0 mm 584.00 W/m2
17:14 22.9 °C 12.5 °C 1020.5 hPa Calm   6.4 km/h 52% 0.0 mm 557.00 W/m2
17:19 23.5 °C 12.8 °C 1020.5 hPa NE 1.4 km/h 4.8 km/h 51% 0.0 mm 162.00 W/m2
17:24 23.5 °C 12.8 °C 1020.5 hPa SSE 6.4 km/h 9.7 km/h 51% 0.0 mm 540.00 W/m2
17:29 23.2 °C 12.5 °C 1020.2 hPa SE 1.4 km/h 6.4 km/h 51% 0.0 mm 527.00 W/m2
17:34 23.8 °C 13.1 °C 1020.2 hPa ENE 9.7 km/h 9.7 km/h 51% 0.0 mm 512.00 W/m2
17:39 23.5 °C 11.9 °C 1020.2 hPa Calm   4.8 km/h 48% 0.0 mm 503.00 W/m2
17:44 23.0 °C 12.3 °C 1020.2 hPa Calm   8.0 km/h 51% 0.0 mm 490.00 W/m2
17:49 23.4 °C 13.0 °C 1020.2 hPa ESE 11.1 km/h 11.3 km/h 52% 0.0 mm 480.00 W/m2
17:54 23.5 °C 12.8 °C 1020.2 hPa SSE 6.4 km/h 9.7 km/h 51% 0.0 mm 462.00 W/m2
17:59 22.9 °C 12.5 °C 1020.2 hPa SW 3.2 km/h 6.4 km/h 52% 0.0 mm 448.00 W/m2
18:04 23.3 °C 12.9 °C 1020.2 hPa ESE 3.2 km/h 12.9 km/h 52% 0.0 mm 432.00 W/m2
18:09 23.6 °C 12.9 °C 1020.2 hPa NE 3.2 km/h 9.7 km/h 51% 0.0 mm 418.00 W/m2
18:14 23.5 °C 12.8 °C 1020.2 hPa Calm   11.3 km/h 51% 0.0 mm 394.00 W/m2
18:19 23.5 °C 12.8 °C 1020.2 hPa ENE 1.4 km/h 11.3 km/h 51% 0.0 mm 380.00 W/m2
18:24 23.3 °C 12.9 °C 1020.2 hPa ENE 7.9 km/h 11.3 km/h 52% 0.0 mm 360.00 W/m2
18:29 23.1 °C 12.7 °C 1019.9 hPa SSE 1.4 km/h 8.0 km/h 52% 0.0 mm 346.00 W/m2
18:34 23.1 °C 13.0 °C 1019.9 hPa Calm   1.6 km/h 53% 0.0 mm 348.00 W/m2
18:39 23.1 °C 12.4 °C 1019.9 hPa Calm   6.4 km/h 51% 0.0 mm 341.00 W/m2
18:44 23.2 °C 12.8 °C 1019.9 hPa ESE 4.7 km/h 9.7 km/h 52% 0.0 mm 327.00 W/m2
18:49 23.4 °C 12.7 °C 1019.9 hPa ESE 1.4 km/h 9.7 km/h 51% 0.0 mm 316.00 W/m2
18:54 23.8 °C 13.1 °C 1019.9 hPa SE 6.4 km/h 11.3 km/h 51% 0.0 mm 288.00 W/m2
18:59 23.9 °C 13.1 °C 1019.9 hPa Calm   4.8 km/h 51% 0.0 mm 271.00 W/m2
19:04 24.2 °C 13.1 °C 1019.9 hPa Calm   8.0 km/h 50% 0.0 mm 271.00 W/m2
19:09 24.3 °C 12.9 °C 1020.2 hPa ESE 6.4 km/h 11.3 km/h 49% 0.0 mm 218.00 W/m2
19:14 23.3 °C 12.3 °C 1019.9 hPa SSE 3.2 km/h 9.7 km/h 50% 0.0 mm 202.00 W/m2
19:19 22.3 °C 12.0 °C 1019.9 hPa Calm   6.4 km/h 52% 0.0 mm 202.00 W/m2
19:24 22.3 °C 12.3 °C 1020.2 hPa SSE 1.4 km/h 8.0 km/h 53% 0.0 mm 163.00 W/m2
19:29 22.2 °C 11.9 °C 1019.9 hPa SSE 4.7 km/h 8.0 km/h 52% 0.0 mm 188.00 W/m2
19:34 22.4 °C 12.3 °C 1020.2 hPa East 1.4 km/h 8.0 km/h 53% 0.0 mm 188.00 W/m2
19:39 22.8 °C 12.4 °C 1019.9 hPa NE 1.4 km/h 6.4 km/h 52% 0.0 mm 163.00 W/m2
19:44 21.9 °C 11.9 °C 1020.2 hPa SE 4.7 km/h 8.0 km/h 53% 0.0 mm 142.00 W/m2
19:49 21.7 °C 12.3 °C 1020.2 hPa ESE 7.9 km/h 8.0 km/h 55% 0.0 mm 98.00 W/m2
19:54 21.9 °C 12.5 °C 1020.2 hPa SE 3.2 km/h 6.4 km/h 55% 0.0 mm 111.00 W/m2
19:59 21.9 °C 12.5 °C 1020.2 hPa Calm   6.4 km/h 55% 0.0 mm 97.00 W/m2
20:04 21.9 °C 12.5 °C 1020.2 hPa SE 1.4 km/h 3.2 km/h 55% 0.0 mm 77.00 W/m2
20:09 22.0 °C 12.5 °C 1020.2 hPa Calm   6.4 km/h 55% 0.0 mm 65.00 W/m2
20:14 21.8 °C 12.4 °C 1020.2 hPa Calm   4.8 km/h 55% 0.0 mm 47.00 W/m2
20:19 21.7 °C 12.5 °C 1020.2 hPa Calm   1.6 km/h 56% 0.0 mm 33.00 W/m2
20:24 21.7 °C 12.5 °C 1020.2 hPa Calm   3.2 km/h 56% 0.0 mm 39.00 W/m2
20:29 21.8 °C 12.6 °C 1020.2 hPa SE 1.4 km/h 1.6 km/h 56% 0.0 mm 30.00 W/m2
20:34 21.7 °C 12.5 °C 1020.2 hPa ESE 6.4 km/h 6.4 km/h 56% 0.0 mm 23.00 W/m2
20:39 21.5 °C 12.6 °C 1019.9 hPa Calm   4.8 km/h 57% 0.0 mm 19.00 W/m2
20:44 21.4 °C 12.8 °C 1019.9 hPa East 3.2 km/h 4.8 km/h 58% 0.0 mm 18.00 W/m2
20:49 21.3 °C 12.7 °C 1019.9 hPa Calm     58% 0.0 mm 14.00 W/m2
20:54 21.3 °C 12.7 °C 1020.2 hPa Calm   1.6 km/h 58% 0.0 mm 12.00 W/m2
20:59 21.2 °C 12.9 °C 1020.2 hPa Calm     59% 0.0 mm 11.00 W/m2
21:04 21.0 °C 12.7 °C 1020.2 hPa Calm   1.6 km/h 59% 0.0 mm 7.00 W/m2
21:09 20.9 °C 12.8 °C 1020.2 hPa Calm   1.6 km/h 60% 0.0 mm 5.00 W/m2
21:14 20.7 °C 12.7 °C 1020.2 hPa Calm     60% 0.0 mm 0.00 W/m2
21:19 20.4 °C 12.6 °C 1020.2 hPa Calm     61% 0.0 mm 0.00 W/m2
21:24 20.2 °C 12.7 °C 1020.2 hPa Calm     62% 0.0 mm 0.00 W/m2
21:29 20.1 °C 12.6 °C 1020.2 hPa Calm     62% 0.0 mm 0.00 W/m2
21:34 20.0 °C 12.7 °C 1020.5 hPa Calm     63% 0.0 mm 0.00 W/m2
21:39 19.9 °C 12.6 °C 1020.5 hPa Calm     63% 0.0 mm 0.00 W/m2
21:44 19.8 °C 12.6 °C 1020.5 hPa Calm     63% 0.0 mm 0.00 W/m2
21:49 19.7 °C 12.7 °C 1020.5 hPa Calm     64% 0.0 mm 0.00 W/m2
21:54 19.0 °C 12.3 °C 1020.5 hPa SSE 3.2 km/h 11.3 km/h 65% 0.0 mm 0.00 W/m2
21:59 18.8 °C 12.5 °C 1020.5 hPa Calm   1.6 km/h 67% 0.0 mm 0.00 W/m2
22:04 18.5 °C 12.5 °C 1020.5 hPa SW 4.7 km/h 9.7 km/h 68% 0.0 mm 0.00 W/m2
22:09 17.9 °C 12.4 °C 1020.5 hPa Calm   6.4 km/h 70% 0.0 mm 0.00 W/m2
22:14 17.7 °C 12.4 °C 1020.5 hPa SW 3.2 km/h 3.2 km/h 71% 0.0 mm 0.00 W/m2
22:19 17.3 °C 12.2 °C 1020.5 hPa SW 4.7 km/h 6.4 km/h 72% 0.0 mm 0.00 W/m2
22:24 17.2 °C 12.1 °C 1020.5 hPa SW 1.4 km/h 6.4 km/h 72% 0.0 mm 0.00 W/m2
22:29 17.0 °C 12.1 °C 1020.5 hPa SW 3.2 km/h 6.4 km/h 73% 0.0 mm 0.00 W/m2
22:34 16.9 °C 12.0 °C 1020.5 hPa Calm   6.4 km/h 73% 0.0 mm 0.00 W/m2
22:39 16.9 °C 12.0 °C 1020.5 hPa SW 1.4 km/h 4.8 km/h 73% 0.0 mm 0.00 W/m2
22:44 16.8 °C 11.9 °C 1020.5 hPa Calm   3.2 km/h 73% 0.0 mm 0.00 W/m2
22:49 16.7 °C 11.8 °C 1020.5 hPa SW 1.4 km/h 4.8 km/h 73% 0.0 mm 0.00 W/m2
22:54 16.5 °C 11.8 °C 1020.5 hPa SW 1.4 km/h 8.0 km/h 74% 0.0 mm 0.00 W/m2
22:59 16.5 °C 11.8 °C 1020.5 hPa Calm     74% 0.0 mm 0.00 W/m2
23:04 16.4 °C 11.8 °C 1020.9 hPa SW 1.4 km/h 3.2 km/h 74% 0.0 mm 0.00 W/m2
23:09 16.3 °C 11.7 °C 1020.5 hPa Calm   3.2 km/h 74% 0.0 mm 0.00 W/m2
23:14 16.2 °C 11.6 °C 1020.5 hPa Calm     74% 0.0 mm 0.00 W/m2
23:19 16.0 °C 11.4 °C 1020.5 hPa Calm     74% 0.0 mm 0.00 W/m2
23:24 15.9 °C 11.3 °C 1020.5 hPa Calm   3.2 km/h 74% 0.0 mm 0.00 W/m2
23:29 15.8 °C 11.4 °C 1020.5 hPa Calm   1.6 km/h 75% 0.0 mm 0.00 W/m2
23:34 15.7 °C 11.3 °C 1020.5 hPa Calm     75% 0.0 mm 0.00 W/m2
23:39 15.7 °C 11.3 °C 1020.5 hPa Calm     75% 0.0 mm 0.00 W/m2
23:44 15.7 °C 11.3 °C 1020.5 hPa Calm     75% 0.0 mm 0.00 W/m2
23:49 15.7 °C 11.3 °C 1020.5 hPa Calm     75% 0.0 mm 0.00 W/m2
23:54 15.7 °C 11.3 °C 1020.5 hPa Calm     75% 0.0 mm 0.00 W/m2
23:59 15.6 °C 11.4 °C 1020.5 hPa Calm     76% 0.0 mm 0.00 W/m2